createdAt,value
2022-09-10T00:01:22.527Z,15.50
2022-09-10T00:03:50.838Z,15.50
2022-09-10T00:06:19.831Z,15.50
2022-09-10T00:08:49.150Z,15.40
2022-09-10T00:11:17.058Z,15.40
2022-09-10T00:13:45.084Z,15.40
2022-09-10T00:16:16.747Z,15.40
2022-09-10T00:18:44.720Z,15.40
2022-09-10T00:21:14.476Z,15.40
2022-09-10T00:23:45.626Z,15.40
2022-09-10T00:26:17.012Z,15.40
2022-09-10T00:28:45.477Z,15.30
2022-09-10T00:31:17.263Z,15.40
2022-09-10T00:33:45.152Z,15.40
2022-09-10T00:36:17.568Z,15.40
2022-09-10T00:38:45.435Z,15.30
2022-09-10T00:41:14.231Z,15.30
2022-09-10T00:43:51.009Z,15.30
2022-09-10T00:46:35.436Z,15.30
2022-09-10T00:49:06.956Z,15.30
2022-09-10T00:51:37.577Z,15.30
2022-09-10T00:54:07.308Z,15.30
2022-09-10T00:56:35.605Z,15.30
2022-09-10T00:59:05.890Z,15.30
2022-09-10T01:01:36.505Z,15.30
2022-09-10T01:04:05.586Z,15.30
2022-09-10T01:06:33.748Z,15.30
2022-09-10T01:09:02.932Z,15.30
2022-09-10T01:11:47.738Z,15.30
2022-09-10T01:14:35.936Z,15.30
2022-09-10T01:17:13.542Z,15.30
2022-09-10T01:20:17.938Z,15.30
2022-09-10T01:23:07.232Z,15.30
2022-09-10T01:25:44.683Z,15.30
2022-09-10T01:28:19.716Z,15.30
2022-09-10T01:30:52.540Z,15.30
2022-09-10T01:33:27.250Z,15.20
2022-09-10T01:35:58.037Z,15.30
2022-09-10T01:38:31.584Z,15.30
2022-09-10T01:41:00.114Z,15.20
2022-09-10T01:43:29.474Z,15.20
2022-09-10T01:46:11.166Z,15.20
2022-09-10T01:49:11.258Z,15.30
2022-09-10T01:51:53.119Z,15.30
2022-09-10T01:54:37.101Z,15.30
2022-09-10T01:57:17.329Z,15.30
2022-09-10T01:59:54.898Z,15.20
2022-09-10T02:02:25.858Z,15.30
2022-09-10T02:04:55.784Z,15.30
2022-09-10T02:07:26.835Z,15.20
2022-09-10T02:09:55.815Z,15.20
2022-09-10T02:12:24.844Z,15.20
2022-09-10T02:14:56.525Z,15.20
2022-09-10T02:17:27.931Z,15.20
2022-09-10T02:19:56.745Z,15.20
2022-09-10T02:22:25.323Z,15.20
2022-09-10T02:24:53.499Z,15.10
2022-09-10T02:27:21.452Z,15.20
2022-09-10T02:29:49.636Z,15.20
2022-09-10T02:32:18.813Z,15.10
2022-09-10T02:34:46.713Z,15.10
2022-09-10T02:37:15.927Z,15.00
2022-09-10T02:39:45.048Z,15.00
2022-09-10T02:42:17.557Z,15.00
2022-09-10T02:44:47.856Z,15.00
2022-09-10T02:47:15.726Z,15.00
2022-09-10T02:49:45.793Z,15.00
2022-09-10T02:52:13.699Z,15.00
2022-09-10T02:54:41.547Z,15.00
2022-09-10T02:57:09.401Z,15.00
2022-09-10T02:59:37.240Z,15.00
2022-09-10T03:02:05.375Z,15.00
2022-09-10T03:04:33.493Z,15.00
2022-09-10T03:07:02.740Z,15.00
2022-09-10T03:09:30.623Z,15.00
2022-09-10T03:11:59.635Z,15.00
2022-09-10T03:14:30.238Z,15.00
2022-09-10T03:16:58.270Z,15.10
2022-09-10T03:19:26.132Z,15.10
2022-09-10T03:21:54.117Z,15.10
2022-09-10T03:24:23.353Z,15.10
2022-09-10T03:26:51.477Z,15.10
2022-09-10T03:29:19.536Z,15.10
2022-09-10T03:31:47.479Z,15.20
2022-09-10T03:34:15.530Z,15.20
2022-09-10T03:36:43.386Z,15.20
2022-09-10T03:39:11.396Z,15.30
2022-09-10T03:41:40.657Z,15.30
2022-09-10T03:44:08.552Z,15.30
2022-09-10T03:46:38.029Z,15.30
2022-09-10T03:49:06.321Z,15.30
2022-09-10T03:51:35.122Z,15.40
2022-09-10T03:54:03.096Z,15.40
2022-09-10T03:56:31.604Z,15.40
2022-09-10T03:59:00.853Z,15.50
2022-09-10T04:01:28.794Z,15.50
2022-09-10T04:03:57.516Z,15.50
2022-09-10T04:06:25.603Z,15.40
2022-09-10T04:08:54.164Z,15.50
2022-09-10T04:11:24.092Z,15.40
2022-09-10T04:13:52.321Z,15.50
2022-09-10T04:16:23.378Z,15.50
2022-09-10T04:18:51.376Z,15.50
2022-09-10T04:21:20.174Z,15.50
2022-09-10T04:23:48.057Z,15.50
2022-09-10T04:26:17.545Z,15.40
2022-09-10T04:28:46.249Z,15.40
2022-09-10T04:31:14.063Z,15.50
2022-09-10T04:33:43.448Z,15.50
2022-09-10T04:36:12.782Z,15.50
2022-09-10T04:38:42.064Z,15.50
2022-09-10T04:41:10.409Z,15.50
2022-09-10T04:43:38.860Z,15.50
2022-09-10T04:46:06.986Z,15.50
2022-09-10T04:48:35.178Z,15.50
2022-09-10T04:51:16.225Z,15.50
2022-09-10T04:53:45.529Z,15.50
2022-09-10T04:56:13.800Z,15.40
2022-09-10T04:58:42.023Z,15.30
2022-09-10T05:01:10.285Z,15.30
2022-09-10T05:03:38.234Z,15.30
2022-09-10T05:06:07.784Z,15.30
2022-09-10T05:08:36.542Z,15.30
2022-09-10T05:11:04.568Z,15.30
2022-09-10T05:13:32.393Z,15.30
2022-09-10T05:16:00.500Z,15.30
2022-09-10T05:18:28.678Z,15.20
2022-09-10T05:20:56.546Z,15.20
2022-09-10T05:23:26.375Z,15.20
2022-09-10T05:25:54.257Z,15.20
2022-09-10T05:28:22.622Z,15.20
2022-09-10T05:30:51.913Z,15.20
2022-09-10T05:33:19.937Z,15.20
2022-09-10T05:35:51.866Z,15.20
2022-09-10T05:38:20.264Z,15.20
2022-09-10T05:40:49.681Z,15.20
2022-09-10T05:43:17.549Z,15.30
2022-09-10T05:45:45.525Z,15.20
2022-09-10T05:48:13.487Z,15.20
2022-09-10T05:50:41.310Z,15.20
2022-09-10T05:53:10.280Z,15.20
2022-09-10T05:55:38.346Z,15.20
2022-09-10T05:58:07.591Z,15.20
2022-09-10T06:00:36.396Z,15.20
2022-09-10T06:03:05.499Z,15.20
2022-09-10T06:05:33.487Z,15.20
2022-09-10T06:08:05.397Z,15.20
2022-09-10T06:10:36.279Z,15.20
2022-09-10T06:13:04.188Z,15.30
2022-09-10T06:15:35.325Z,15.30
2022-09-10T06:18:03.191Z,15.30
2022-09-10T06:20:32.040Z,15.30
2022-09-10T06:22:59.977Z,15.30
2022-09-10T06:25:28.014Z,15.30
2022-09-10T06:27:56.424Z,15.30
2022-09-10T06:30:24.629Z,15.40
2022-09-10T06:32:53.904Z,15.40
2022-09-10T06:35:21.742Z,15.40
2022-09-10T06:37:50.197Z,15.40
2022-09-10T06:40:18.572Z,15.50
2022-09-10T06:42:48.446Z,15.50
2022-09-10T06:45:16.963Z,15.50
2022-09-10T06:50:34.262Z,15.60
2022-09-10T06:53:02.385Z,15.70
2022-09-10T06:55:30.320Z,15.70
2022-09-10T06:58:00.587Z,15.80
2022-09-10T07:00:31.120Z,15.80
2022-09-10T07:02:59.441Z,15.90
2022-09-10T07:05:28.590Z,15.90
2022-09-10T07:07:57.890Z,16.00
2022-09-10T07:10:27.616Z,16.00
2022-09-10T07:12:55.503Z,16.00
2022-09-10T07:15:23.379Z,16.10
2022-09-10T07:17:51.306Z,16.20
2022-09-10T07:20:19.285Z,16.20
2022-09-10T07:22:47.556Z,16.20
2022-09-10T07:25:17.056Z,16.30
2022-09-10T07:27:44.897Z,16.30
2022-09-10T07:30:14.063Z,16.30
2022-09-10T07:32:42.350Z,16.40
2022-09-10T07:35:10.905Z,16.40
2022-09-10T07:37:39.523Z,16.40
2022-09-10T07:40:08.910Z,16.50
2022-09-10T07:42:38.224Z,16.50
2022-09-10T07:45:07.164Z,16.60
2022-09-10T07:47:35.062Z,16.60
2022-09-10T07:50:02.918Z,16.70
2022-09-10T07:52:30.760Z,16.70
2022-09-10T07:54:58.600Z,16.80
2022-09-10T07:57:26.466Z,16.80
2022-09-10T07:59:56.144Z,16.80
2022-09-10T08:02:25.674Z,16.90
2022-09-10T08:04:53.726Z,16.90
2022-09-10T08:07:21.576Z,16.90
2022-09-10T08:09:49.475Z,17.00
2022-09-10T08:12:17.599Z,17.00
2022-09-10T08:14:45.404Z,17.10
2022-09-10T08:17:14.600Z,17.10
2022-09-10T08:19:42.603Z,17.10
2022-09-10T08:22:13.681Z,17.10
2022-09-10T08:24:42.668Z,17.20
2022-09-10T08:27:11.485Z,17.20
2022-09-10T08:29:39.584Z,17.20
2022-09-10T08:32:07.620Z,17.30
2022-09-10T08:34:37.160Z,17.40
2022-09-10T08:37:05.078Z,17.50
2022-09-10T08:39:33.254Z,17.60
2022-09-10T08:42:05.843Z,17.60
2022-09-10T08:44:41.145Z,17.70
2022-09-10T08:47:26.816Z,17.70
2022-09-10T08:49:59.071Z,17.80
2022-09-10T08:52:31.113Z,17.90
2022-09-10T08:55:07.351Z,17.90
2022-09-10T08:57:45.055Z,18.00
2022-09-10T09:00:15.974Z,18.10
2022-09-10T09:02:50.086Z,18.10
2022-09-10T09:05:22.738Z,18.20
2022-09-10T09:07:52.334Z,18.20
2022-09-10T09:10:33.628Z,18.30
2022-09-10T09:13:26.386Z,18.20
2022-09-10T09:16:01.692Z,18.30
2022-09-10T09:18:37.329Z,18.40
2022-09-10T09:21:13.979Z,18.40
2022-09-10T09:24:11.757Z,18.40
2022-09-10T09:26:39.144Z,18.40
2022-09-10T09:29:12.385Z,18.40
2022-09-10T09:31:45.612Z,18.50
2022-09-10T09:34:19.462Z,18.50
2022-09-10T09:36:52.623Z,18.50
2022-09-10T09:39:25.754Z,18.40
2022-09-10T09:42:01.089Z,18.40
2022-09-10T09:44:34.517Z,18.40
2022-09-10T09:47:02.672Z,18.40
2022-09-10T09:49:30.567Z,18.50
2022-09-10T09:52:00.034Z,18.50
2022-09-10T09:55:03.098Z,18.50
2022-09-10T09:57:20.799Z,18.50
2022-09-10T09:59:49.466Z,18.50
2022-09-10T10:02:20.051Z,18.50
2022-09-10T10:05:05.532Z,18.30
2022-09-10T10:07:36.747Z,18.30
2022-09-10T10:10:07.336Z,18.20
2022-09-10T10:12:36.187Z,18.20
2022-09-10T10:15:04.183Z,18.10
2022-09-10T10:17:38.108Z,18.10
2022-09-10T10:20:09.322Z,18.00
2022-09-10T10:22:39.346Z,17.90
2022-09-10T10:25:34.087Z,17.90
2022-09-10T10:28:02.152Z,17.90
2022-09-10T10:30:32.072Z,17.80
2022-09-10T10:33:01.754Z,17.80
2022-09-10T10:35:35.436Z,17.80
2022-09-10T10:38:32.899Z,17.80
2022-09-10T10:41:24.339Z,17.80
2022-09-10T10:44:03.074Z,17.90
2022-09-10T10:46:41.406Z,17.90
2022-09-10T10:49:19.839Z,17.80
2022-09-10T10:51:56.264Z,17.80
2022-09-10T10:54:48.253Z,17.80
2022-09-10T10:57:25.361Z,17.80
2022-09-10T10:59:57.459Z,17.90
2022-09-10T11:02:38.450Z,17.90
2022-09-10T11:05:31.947Z,17.90
2022-09-10T11:08:02.895Z,17.90
2022-09-10T11:10:37.729Z,18.00
2022-09-10T11:13:11.892Z,18.10
2022-09-10T11:15:47.439Z,18.20
2022-09-10T11:18:19.684Z,18.30
2022-09-10T11:20:57.996Z,18.50
2022-09-10T11:23:33.478Z,18.60
2022-09-10T11:26:08.575Z,18.70
2022-09-10T11:28:41.098Z,18.90
2022-09-10T11:31:15.380Z,18.90
2022-09-10T11:33:53.160Z,18.90
2022-09-10T11:36:26.082Z,19.00
2022-09-10T11:39:05.459Z,18.90
2022-09-10T11:41:36.844Z,19.00
2022-09-10T11:44:14.401Z,19.00
2022-09-10T11:46:45.865Z,18.90
2022-09-10T11:49:17.919Z,18.80
2022-09-10T11:51:48.138Z,18.70
2022-09-10T11:54:18.535Z,18.70
2022-09-10T11:57:00.302Z,18.70
2022-09-10T11:59:45.183Z,18.70
2022-09-10T12:02:52.659Z,18.80
2022-09-10T12:05:27.686Z,18.80
2022-09-10T12:08:01.887Z,18.80
2022-09-10T12:10:35.756Z,18.80
2022-09-10T12:13:09.943Z,18.90
2022-09-10T12:15:39.107Z,19.00
2022-09-10T12:18:14.705Z,19.10
2022-09-10T12:20:48.659Z,19.10
2022-09-10T12:23:19.268Z,19.10
2022-09-10T12:25:57.777Z,19.20
2022-09-10T12:28:59.018Z,19.30
2022-09-10T12:31:28.820Z,19.20
2022-09-10T12:34:18.095Z,19.20
2022-09-10T12:37:23.429Z,19.20
2022-09-10T12:40:31.270Z,19.10
2022-09-10T12:43:01.745Z,19.10
2022-09-10T12:46:12.556Z,19.10
2022-09-10T12:48:44.868Z,19.10
2022-09-10T12:51:28.907Z,19.20
2022-09-10T12:54:10.806Z,19.20
2022-09-10T12:56:55.666Z,19.30
2022-09-10T12:59:46.480Z,19.30
2022-09-10T13:02:22.910Z,19.40
2022-09-10T13:05:01.936Z,19.60
2022-09-10T13:07:39.981Z,19.70
2022-09-10T13:10:21.703Z,20.10
2022-09-10T13:12:53.001Z,20.20
2022-09-10T13:15:24.055Z,20.20
2022-09-10T13:18:15.604Z,20.00
2022-09-10T13:20:44.841Z,19.90
2022-09-10T13:23:22.713Z,19.90
2022-09-10T13:25:52.361Z,20.10
2022-09-10T13:28:58.719Z,20.40
2022-09-10T13:31:31.364Z,20.80
2022-09-10T13:34:32.204Z,20.80
2022-09-10T13:37:38.691Z,20.80
2022-09-10T13:40:43.044Z,21.10
2022-09-10T13:43:34.296Z,21.10
2022-09-10T13:46:06.379Z,20.90
2022-09-10T13:48:44.497Z,20.50
2022-09-10T13:51:25.941Z,20.40
2022-09-10T13:53:54.631Z,20.40
2022-09-10T13:56:28.308Z,20.40
2022-09-10T13:59:00.763Z,20.50
2022-09-10T14:01:49.799Z,20.40
2022-09-10T14:04:26.160Z,20.20
2022-09-10T14:06:57.936Z,20.10
2022-09-10T14:09:27.390Z,19.90
2022-09-10T14:11:59.680Z,19.90
2022-09-10T14:14:30.936Z,19.80
2022-09-10T14:17:03.830Z,19.80
2022-09-10T14:19:37.801Z,19.70
2022-09-10T14:22:09.838Z,19.70
2022-09-10T14:24:52.640Z,19.70
2022-09-10T14:27:25.575Z,19.70
2022-09-10T14:29:55.549Z,19.60
2022-09-10T14:32:28.995Z,19.70
2022-09-10T14:34:57.390Z,19.80
2022-09-10T14:37:32.115Z,19.80
2022-09-10T14:40:07.950Z,19.80
2022-09-10T14:42:37.314Z,19.80
2022-09-10T14:45:05.852Z,19.60
2022-09-10T14:47:37.024Z,19.50
2022-09-10T14:50:28.580Z,19.50
2022-09-10T14:52:56.593Z,19.50
2022-09-10T14:55:26.859Z,19.50
2022-09-10T14:57:57.193Z,19.50
2022-09-10T15:00:25.932Z,19.50
2022-09-10T15:02:57.210Z,19.50
2022-09-10T15:05:25.049Z,19.50
2022-09-10T15:07:52.939Z,19.40
2022-09-10T15:10:20.786Z,19.40
2022-09-10T15:12:52.016Z,19.30
2022-09-10T15:15:21.240Z,19.30
2022-09-10T15:17:49.116Z,19.30
2022-09-10T15:20:17.572Z,19.20
2022-09-10T15:22:46.066Z,19.10
2022-09-10T15:25:29.700Z,19.20
2022-09-10T15:27:57.743Z,19.10
2022-09-10T15:30:26.939Z,19.10
2022-09-10T15:32:55.282Z,19.20
2022-09-10T15:35:24.018Z,19.20
2022-09-10T15:37:52.520Z,19.20
2022-09-10T15:40:20.417Z,19.30
2022-09-10T15:42:48.551Z,19.40
2022-09-10T15:45:16.683Z,19.40
2022-09-10T15:47:45.935Z,19.50
2022-09-10T15:50:15.821Z,19.40
2022-09-10T15:52:44.841Z,19.40
2022-09-10T15:55:13.203Z,19.40
2022-09-10T15:57:41.283Z,19.40
2022-09-10T16:00:10.744Z,19.40
2022-09-10T16:02:38.627Z,19.40
2022-09-10T16:05:08.675Z,19.40
2022-09-10T16:07:36.770Z,19.50
2022-09-10T16:10:06.126Z,19.40
2022-09-10T16:12:34.148Z,19.40
2022-09-10T16:15:02.021Z,19.40
2022-09-10T16:17:31.643Z,19.50
2022-09-10T16:20:00.009Z,19.40
2022-09-10T16:22:30.403Z,19.40
2022-09-10T16:24:58.589Z,19.30
2022-09-10T16:27:26.406Z,19.30
2022-09-10T16:29:54.298Z,19.30
2022-09-10T16:32:22.164Z,19.30
2022-09-10T16:34:50.111Z,19.20
2022-09-10T16:37:18.350Z,19.30
2022-09-10T16:39:47.518Z,19.30
2022-09-10T16:42:15.580Z,19.30
2022-09-10T16:44:43.482Z,19.30
2022-09-10T16:47:11.445Z,19.30
2022-09-10T16:49:39.519Z,19.30
2022-09-10T16:52:07.896Z,19.30
2022-09-10T16:54:38.393Z,19.40
2022-09-10T16:57:08.440Z,19.40
2022-09-10T16:59:36.531Z,19.30
2022-09-10T17:02:05.352Z,19.40
2022-09-10T17:04:33.548Z,19.30
2022-09-10T17:07:01.346Z,19.30
2022-09-10T17:09:29.409Z,19.20
2022-09-10T17:11:57.264Z,19.20
2022-09-10T17:14:26.786Z,19.10
2022-09-10T17:16:54.672Z,19.10
2022-09-10T17:19:26.186Z,19.00
2022-09-10T17:21:55.769Z,19.00
2022-09-10T17:24:25.306Z,18.90
2022-09-10T17:26:55.035Z,18.80
2022-09-10T17:29:26.341Z,18.80
2022-09-10T17:31:55.477Z,18.70
2022-09-10T17:34:24.389Z,18.70
2022-09-10T17:36:52.521Z,18.60
2022-09-10T17:39:20.495Z,18.50
2022-09-10T17:41:48.748Z,18.50
2022-09-10T17:44:18.244Z,18.50
2022-09-10T17:46:47.453Z,18.50
2022-09-10T17:49:17.809Z,18.50
2022-09-10T17:51:46.097Z,18.50
2022-09-10T17:54:15.199Z,18.40
2022-09-10T17:56:43.371Z,18.30
2022-09-10T17:59:14.175Z,18.30
2022-09-10T18:01:42.866Z,18.30
2022-09-10T18:04:14.182Z,18.30
2022-09-10T18:06:41.972Z,18.20
2022-09-10T18:09:11.410Z,18.20
2022-09-10T18:11:41.111Z,18.10
2022-09-10T18:14:09.418Z,18.10
2022-09-10T18:16:38.466Z,17.90
2022-09-10T18:19:13.926Z,17.90
2022-09-10T18:21:44.755Z,17.80
2022-09-10T18:24:14.435Z,17.70
2022-09-10T18:26:44.318Z,17.70
2022-09-10T18:29:14.358Z,17.60
2022-09-10T18:31:45.440Z,17.60
2022-09-10T18:34:19.566Z,17.60
2022-09-10T18:36:55.105Z,17.50
2022-09-10T18:39:24.464Z,17.50
2022-09-10T18:41:53.214Z,17.50
2022-09-10T18:44:23.321Z,17.60
2022-09-10T18:46:52.619Z,17.60
2022-09-10T18:49:21.770Z,17.60
2022-09-10T18:51:52.140Z,17.60
2022-09-10T18:54:21.331Z,17.50
2022-09-10T18:56:50.423Z,17.50
2022-09-10T18:59:20.650Z,17.40
2022-09-10T19:01:51.133Z,17.30
2022-09-10T19:04:21.579Z,17.20
2022-09-10T19:06:51.503Z,17.20
2022-09-10T19:09:21.851Z,17.10
2022-09-10T19:11:52.871Z,17.10
2022-09-10T19:14:23.187Z,17.00
2022-09-10T19:16:51.999Z,17.00
2022-09-10T19:19:22.147Z,16.90
2022-09-10T19:21:53.232Z,16.90
2022-09-10T19:24:32.859Z,16.90
2022-09-10T19:27:09.621Z,16.90
2022-09-10T19:29:37.667Z,16.90
2022-09-10T19:32:06.502Z,16.90
2022-09-10T19:34:34.338Z,16.90
2022-09-10T19:37:03.839Z,16.90
2022-09-10T19:39:31.760Z,16.90
2022-09-10T19:41:59.575Z,16.90
2022-09-10T19:44:28.093Z,16.80
2022-09-10T19:46:56.061Z,16.80
2022-09-10T19:49:23.953Z,16.90
2022-09-10T19:51:51.817Z,16.90
2022-09-10T19:54:22.784Z,16.90
2022-09-10T19:56:50.814Z,16.90
2022-09-10T19:59:18.644Z,16.90
2022-09-10T20:01:46.790Z,17.00
2022-09-10T20:04:15.018Z,17.00
2022-09-10T20:06:45.756Z,17.10
2022-09-10T20:09:13.703Z,17.10
2022-09-10T20:11:43.096Z,17.10
2022-09-10T20:14:13.909Z,17.10
2022-09-10T20:16:43.709Z,17.20
2022-09-10T20:19:13.840Z,17.20
2022-09-10T20:21:42.206Z,17.10
2022-09-10T20:24:10.840Z,17.10
2022-09-10T20:26:41.000Z,17.10
2022-09-10T20:29:13.080Z,17.00
2022-09-10T20:31:43.139Z,17.00
2022-09-10T20:34:13.493Z,16.90
2022-09-10T20:36:42.158Z,16.90
2022-09-10T20:39:11.180Z,16.90
2022-09-10T20:41:40.078Z,16.80
2022-09-10T20:44:08.329Z,16.80
2022-09-10T20:46:37.911Z,16.80
2022-09-10T20:49:05.941Z,16.80
2022-09-10T20:51:35.828Z,16.80
2022-09-10T20:54:04.349Z,16.80
2022-09-10T20:56:32.343Z,16.70
2022-09-10T20:59:01.826Z,16.80
2022-09-10T21:01:32.035Z,16.70
2022-09-10T21:04:02.953Z,16.70
2022-09-10T21:06:33.167Z,16.70
2022-09-10T21:09:02.571Z,16.70
2022-09-10T21:11:32.815Z,16.60
2022-09-10T21:14:02.866Z,16.60
2022-09-10T21:16:32.348Z,16.60
2022-09-10T21:19:02.978Z,16.60
2022-09-10T21:21:32.699Z,16.60
2022-09-10T21:24:01.800Z,16.60
2022-09-10T21:26:31.356Z,16.60
2022-09-10T21:29:00.854Z,16.60
2022-09-10T21:31:29.668Z,16.50
2022-09-10T21:34:02.756Z,16.50
2022-09-10T21:36:34.601Z,16.50
2022-09-10T21:39:04.754Z,16.50
2022-09-10T21:41:35.499Z,16.50
2022-09-10T21:44:08.293Z,16.50
2022-09-10T21:46:36.217Z,16.60
2022-09-10T21:49:05.006Z,16.50
2022-09-10T21:51:34.212Z,16.50
2022-09-10T21:54:02.059Z,16.60
2022-09-10T21:56:29.993Z,16.50
2022-09-10T21:59:00.933Z,16.50
2022-09-10T22:01:31.028Z,16.50
2022-09-10T22:04:00.640Z,16.60
2022-09-10T22:06:30.024Z,16.60
2022-09-10T22:09:00.908Z,16.60
2022-09-10T22:11:31.216Z,16.70
2022-09-10T22:14:01.023Z,16.70
2022-09-10T22:16:31.007Z,16.80
2022-09-10T22:19:00.582Z,16.80
2022-09-10T22:21:29.218Z,16.80
2022-09-10T22:23:57.079Z,16.80
2022-09-10T22:26:28.476Z,16.90
2022-09-10T22:28:59.206Z,16.90
2022-09-10T22:31:29.115Z,16.90
2022-09-10T22:33:59.162Z,16.90
2022-09-10T22:36:31.273Z,16.90
2022-09-10T22:39:01.017Z,16.90
2022-09-10T22:41:31.551Z,16.90
2022-09-10T22:43:59.583Z,16.90
2022-09-10T22:46:28.343Z,16.90
2022-09-10T22:48:57.065Z,16.80
2022-09-10T22:51:26.785Z,16.80
2022-09-10T22:53:56.419Z,16.80
2022-09-10T22:56:26.858Z,16.80
2022-09-10T22:58:57.922Z,16.80
2022-09-10T23:01:28.416Z,16.80
2022-09-10T23:03:57.595Z,16.80
2022-09-10T23:06:28.221Z,16.80
2022-09-10T23:08:58.471Z,16.80
2022-09-10T23:11:28.838Z,16.80
2022-09-10T23:14:01.204Z,16.80
2022-09-10T23:16:32.750Z,16.80
2022-09-10T23:19:03.803Z,16.70
2022-09-10T23:21:33.744Z,16.70
2022-09-10T23:24:03.886Z,16.70
2022-09-10T23:26:32.648Z,16.70
2022-09-10T23:29:04.283Z,16.70
2022-09-10T23:31:33.956Z,16.70
2022-09-10T23:34:03.670Z,16.70
2022-09-10T23:36:34.080Z,16.70
2022-09-10T23:39:03.144Z,16.70
2022-09-10T23:41:31.004Z,16.70
2022-09-10T23:43:58.868Z,16.70
2022-09-10T23:46:28.699Z,16.70
2022-09-10T23:48:56.993Z,16.80
2022-09-10T23:51:25.141Z,16.80
2022-09-10T23:53:54.611Z,16.80
2022-09-10T23:56:25.525Z,16.80
2022-09-10T23:58:53.404Z,16.80
